sensor_id;sensor_type;location;lat;lon;timestamp;P1;durP1;ratioP1;P2;durP2;ratioP2
51525;SDS011;37611;51.794;21.590;2023-07-02T00:00:00;27.70;;;25.00;;
51525;SDS011;37611;51.794;21.590;2023-07-02T00:04:03;27.90;;;25.10;;
51525;SDS011;37611;51.794;21.590;2023-07-02T00:08:04;29.20;;;26.30;;
51525;SDS011;37611;51.794;21.590;2023-07-02T00:12:06;27.60;;;25.00;;
51525;SDS011;37611;51.794;21.590;2023-07-02T00:16:08;28.60;;;25.80;;
51525;SDS011;37611;51.794;21.590;2023-07-02T00:20:10;28.60;;;25.90;;
51525;SDS011;37611;51.794;21.590;2023-07-02T00:24:15;27.90;;;25.20;;
51525;SDS011;37611;51.794;21.590;2023-07-02T00:28:17;27.80;;;25.30;;
51525;SDS011;37611;51.794;21.590;2023-07-02T00:32:19;28.20;;;25.30;;
51525;SDS011;37611;51.794;21.590;2023-07-02T00:36:20;29.50;;;26.40;;
51525;SDS011;37611;51.794;21.590;2023-07-02T00:40:22;29.00;;;26.30;;
51525;SDS011;37611;51.794;21.590;2023-07-02T00:44:24;29.40;;;26.60;;
51525;SDS011;37611;51.794;21.590;2023-07-02T00:48:25;29.00;;;26.30;;
51525;SDS011;37611;51.794;21.590;2023-07-02T00:52:27;29.30;;;26.60;;
51525;SDS011;37611;51.794;21.590;2023-07-02T00:56:29;28.30;;;25.70;;
51525;SDS011;37611;51.794;21.590;2023-07-02T01:00:31;28.40;;;25.70;;
51525;SDS011;37611;51.794;21.590;2023-07-02T01:04:33;28.80;;;26.10;;
51525;SDS011;37611;51.794;21.590;2023-07-02T01:08:34;30.70;;;27.60;;
51525;SDS011;37611;51.794;21.590;2023-07-02T01:12:36;29.20;;;26.40;;
51525;SDS011;37611;51.794;21.590;2023-07-02T01:16:39;29.30;;;26.60;;
51525;SDS011;37611;51.794;21.590;2023-07-02T01:20:44;30.40;;;27.50;;
51525;SDS011;37611;51.794;21.590;2023-07-02T01:24:48;31.60;;;28.80;;
51525;SDS011;37611;51.794;21.590;2023-07-02T01:28:51;31.10;;;28.20;;
51525;SDS011;37611;51.794;21.590;2023-07-02T01:32:53;30.90;;;28.00;;
51525;SDS011;37611;51.794;21.590;2023-07-02T01:36:54;33.50;;;30.10;;
51525;SDS011;37611;51.794;21.590;2023-07-02T01:40:56;29.60;;;26.80;;
51525;SDS011;37611;51.794;21.590;2023-07-02T01:44:58;30.30;;;27.40;;
51525;SDS011;37611;51.794;21.590;2023-07-02T01:48:59;30.30;;;27.50;;
51525;SDS011;37611;51.794;21.590;2023-07-02T01:53:01;31.80;;;28.70;;
51525;SDS011;37611;51.794;21.590;2023-07-02T01:57:03;31.70;;;28.80;;
51525;SDS011;37611;51.794;21.590;2023-07-02T02:01:06;31.80;;;28.60;;
51525;SDS011;37611;51.794;21.590;2023-07-02T02:05:07;32.40;;;29.00;;
51525;SDS011;37611;51.794;21.590;2023-07-02T02:09:11;28.90;;;26.20;;
51525;SDS011;37611;51.794;21.590;2023-07-02T02:13:13;31.40;;;28.50;;
51525;SDS011;37611;51.794;21.590;2023-07-02T02:17:15;32.60;;;29.40;;
51525;SDS011;37611;51.794;21.590;2023-07-02T02:21:17;33.30;;;28.60;;
51525;SDS011;37611;51.794;21.590;2023-07-02T02:25:19;29.50;;;26.60;;
51525;SDS011;37611;51.794;21.590;2023-07-02T02:29:21;32.00;;;29.00;;
51525;SDS011;37611;51.794;21.590;2023-07-02T02:33:22;32.00;;;29.10;;
51525;SDS011;37611;51.794;21.590;2023-07-02T02:37:24;31.40;;;28.20;;
51525;SDS011;37611;51.794;21.590;2023-07-02T02:41:26;31.70;;;28.60;;
51525;SDS011;37611;51.794;21.590;2023-07-02T02:45:27;31.90;;;28.80;;
51525;SDS011;37611;51.794;21.590;2023-07-02T02:49:30;33.60;;;30.60;;
51525;SDS011;37611;51.794;21.590;2023-07-02T02:53:32;34.30;;;30.90;;
51525;SDS011;37611;51.794;21.590;2023-07-02T02:57:34;34.80;;;31.50;;
51525;SDS011;37611;51.794;21.590;2023-07-02T03:01:36;32.40;;;29.20;;
51525;SDS011;37611;51.794;21.590;2023-07-02T03:05:37;36.10;;;32.70;;
51525;SDS011;37611;51.794;21.590;2023-07-02T03:09:39;34.90;;;31.50;;
51525;SDS011;37611;51.794;21.590;2023-07-02T03:13:41;33.40;;;30.10;;
51525;SDS011;37611;51.794;21.590;2023-07-02T03:17:42;33.70;;;30.50;;
51525;SDS011;37611;51.794;21.590;2023-07-02T03:21:44;32.80;;;29.70;;
51525;SDS011;37611;51.794;21.590;2023-07-02T03:25:46;33.10;;;30.00;;
51525;SDS011;37611;51.794;21.590;2023-07-02T03:29:47;35.30;;;32.00;;
51525;SDS011;37611;51.794;21.590;2023-07-02T03:33:49;33.20;;;30.00;;
51525;SDS011;37611;51.794;21.590;2023-07-02T03:37:51;32.30;;;29.30;;
51525;SDS011;37611;51.794;21.590;2023-07-02T03:41:52;32.50;;;29.30;;
51525;SDS011;37611;51.794;21.590;2023-07-02T03:45:54;32.40;;;29.50;;
51525;SDS011;37611;51.794;21.590;2023-07-02T03:49:56;32.60;;;29.50;;
51525;SDS011;37611;51.794;21.590;2023-07-02T03:53:58;33.80;;;30.60;;
51525;SDS011;37611;51.794;21.590;2023-07-02T03:58:00;31.50;;;28.30;;
51525;SDS011;37611;51.794;21.590;2023-07-02T04:02:01;30.30;;;27.30;;
51525;SDS011;37611;51.794;21.590;2023-07-02T04:06:03;31.50;;;28.60;;
51525;SDS011;37611;51.794;21.590;2023-07-02T04:10:08;31.40;;;28.40;;
51525;SDS011;37611;51.794;21.590;2023-07-02T04:14:09;30.10;;;27.40;;
51525;SDS011;37611;51.794;21.590;2023-07-02T04:18:11;30.70;;;27.70;;
51525;SDS011;37611;51.794;21.590;2023-07-02T04:22:13;31.90;;;28.50;;
51525;SDS011;37611;51.794;21.590;2023-07-02T04:26:15;30.50;;;27.60;;
51525;SDS011;37611;51.794;21.590;2023-07-02T04:30:16;29.30;;;26.70;;
51525;SDS011;37611;51.794;21.590;2023-07-02T04:34:18;29.20;;;26.50;;
51525;SDS011;37611;51.794;21.590;2023-07-02T04:38:23;27.70;;;25.10;;
51525;SDS011;37611;51.794;21.590;2023-07-02T04:42:25;25.40;;;23.00;;
51525;SDS011;37611;51.794;21.590;2023-07-02T04:46:32;26.30;;;23.80;;
51525;SDS011;37611;51.794;21.590;2023-07-02T04:50:34;24.70;;;22.20;;
51525;SDS011;37611;51.794;21.590;2023-07-02T04:54:35;25.70;;;23.20;;
51525;SDS011;37611;51.794;21.590;2023-07-02T04:58:37;24.80;;;22.50;;
51525;SDS011;37611;51.794;21.590;2023-07-02T05:02:39;23.80;;;21.50;;
51525;SDS011;37611;51.794;21.590;2023-07-02T05:06:41;23.40;;;21.00;;
51525;SDS011;37611;51.794;21.590;2023-07-02T05:10:42;22.80;;;20.60;;
51525;SDS011;37611;51.794;21.590;2023-07-02T05:14:44;21.90;;;19.90;;
51525;SDS011;37611;51.794;21.590;2023-07-02T05:18:47;22.10;;;20.00;;
51525;SDS011;37611;51.794;21.590;2023-07-02T05:22:49;21.90;;;19.80;;
51525;SDS011;37611;51.794;21.590;2023-07-02T05:26:50;21.90;;;19.70;;
51525;SDS011;37611;51.794;21.590;2023-07-02T05:30:52;21.40;;;19.30;;
51525;SDS011;37611;51.794;21.590;2023-07-02T05:34:54;21.70;;;19.60;;
51525;SDS011;37611;51.794;21.590;2023-07-02T05:38:56;21.00;;;19.10;;
51525;SDS011;37611;51.794;21.590;2023-07-02T05:42:58;20.30;;;18.20;;
51525;SDS011;37611;51.794;21.590;2023-07-02T05:46:59;20.70;;;18.50;;
51525;SDS011;37611;51.794;21.590;2023-07-02T05:51:02;20.80;;;18.60;;
51525;SDS011;37611;51.794;21.590;2023-07-02T05:55:04;20.40;;;18.30;;
51525;SDS011;37611;51.794;21.590;2023-07-02T05:59:06;20.80;;;18.50;;
51525;SDS011;37611;51.794;21.590;2023-07-02T06:03:07;20.90;;;18.80;;
51525;SDS011;37611;51.794;21.590;2023-07-02T06:07:09;20.90;;;18.90;;
51525;SDS011;37611;51.794;21.590;2023-07-02T06:11:11;19.30;;;17.40;;
51525;SDS011;37611;51.794;21.590;2023-07-02T06:15:13;18.90;;;16.90;;
51525;SDS011;37611;51.794;21.590;2023-07-02T06:19:15;18.10;;;16.40;;
51525;SDS011;37611;51.794;21.590;2023-07-02T06:23:17;15.60;;;14.10;;
51525;SDS011;37611;51.794;21.590;2023-07-02T06:27:18;14.90;;;13.40;;
51525;SDS011;37611;51.794;21.590;2023-07-02T06:31:20;13.80;;;12.00;;
51525;SDS011;37611;51.794;21.590;2023-07-02T06:35:22;13.40;;;12.00;;
51525;SDS011;37611;51.794;21.590;2023-07-02T06:39:23;12.70;;;11.40;;
51525;SDS011;37611;51.794;21.590;2023-07-02T06:43:25;13.20;;;11.90;;
51525;SDS011;37611;51.794;21.590;2023-07-02T06:47:27;14.20;;;11.20;;
51525;SDS011;37611;51.794;21.590;2023-07-02T06:51:28;13.60;;;11.90;;
51525;SDS011;37611;51.794;21.590;2023-07-02T06:55:30;15.90;;;11.30;;
51525;SDS011;37611;51.794;21.590;2023-07-02T06:59:32;13.90;;;11.70;;
51525;SDS011;37611;51.794;21.590;2023-07-02T07:03:36;12.50;;;11.30;;
51525;SDS011;37611;51.794;21.590;2023-07-02T07:07:38;12.00;;;10.80;;
51525;SDS011;37611;51.794;21.590;2023-07-02T07:11:40;11.70;;;10.50;;
51525;SDS011;37611;51.794;21.590;2023-07-02T07:15:42;12.30;;;10.30;;
51525;SDS011;37611;51.794;21.590;2023-07-02T07:19:43;14.40;;;10.70;;
51525;SDS011;37611;51.794;21.590;2023-07-02T07:23:45;11.70;;;9.90;;
51525;SDS011;37611;51.794;21.590;2023-07-02T07:27:47;13.00;;;10.50;;
51525;SDS011;37611;51.794;21.590;2023-07-02T07:31:48;13.10;;;9.70;;
51525;SDS011;37611;51.794;21.590;2023-07-02T07:35:50;11.60;;;10.30;;
51525;SDS011;37611;51.794;21.590;2023-07-02T07:39:52;11.30;;;10.10;;
51525;SDS011;37611;51.794;21.590;2023-07-02T07:43:54;15.40;;;10.80;;
51525;SDS011;37611;51.794;21.590;2023-07-02T07:47:55;11.40;;;10.30;;
51525;SDS011;37611;51.794;21.590;2023-07-02T07:51:57;14.50;;;10.70;;
51525;SDS011;37611;51.794;21.590;2023-07-02T07:55:59;14.40;;;10.20;;
51525;SDS011;37611;51.794;21.590;2023-07-02T08:00:01;12.40;;;10.00;;
51525;SDS011;37611;51.794;21.590;2023-07-02T08:04:05;12.10;;;9.40;;
51525;SDS011;37611;51.794;21.590;2023-07-02T08:08:07;11.00;;;8.90;;
51525;SDS011;37611;51.794;21.590;2023-07-02T08:12:10;9.70;;;8.80;;
51525;SDS011;37611;51.794;21.590;2023-07-02T08:16:11;10.80;;;8.30;;
51525;SDS011;37611;51.794;21.590;2023-07-02T08:20:14;8.30;;;7.60;;
51525;SDS011;37611;51.794;21.590;2023-07-02T08:24:18;11.00;;;7.80;;
51525;SDS011;37611;51.794;21.590;2023-07-02T08:28:19;12.30;;;8.30;;
51525;SDS011;37611;51.794;21.590;2023-07-02T08:32:21;9.10;;;7.90;;
51525;SDS011;37611;51.794;21.590;2023-07-02T08:36:23;9.50;;;7.80;;
51525;SDS011;37611;51.794;21.590;2023-07-02T08:40:25;10.00;;;8.10;;
51525;SDS011;37611;51.794;21.590;2023-07-02T08:44:27;8.90;;;8.00;;
51525;SDS011;37611;51.794;21.590;2023-07-02T08:48:28;7.80;;;6.60;;
51525;SDS011;37611;51.794;21.590;2023-07-02T08:52:30;8.90;;;7.20;;
51525;SDS011;37611;51.794;21.590;2023-07-02T08:56:32;10.60;;;6.90;;
51525;SDS011;37611;51.794;21.590;2023-07-02T09:00:34;9.70;;;6.00;;
51525;SDS011;37611;51.794;21.590;2023-07-02T09:04:39;7.50;;;5.70;;
51525;SDS011;37611;51.794;21.590;2023-07-02T09:08:40;6.30;;;5.70;;
51525;SDS011;37611;51.794;21.590;2023-07-02T09:12:42;7.70;;;5.80;;
51525;SDS011;37611;51.794;21.590;2023-07-02T09:16:44;6.30;;;5.40;;
51525;SDS011;37611;51.794;21.590;2023-07-02T09:20:46;7.90;;;6.30;;
51525;SDS011;37611;51.794;21.590;2023-07-02T09:24:55;7.30;;;5.70;;
51525;SDS011;37611;51.794;21.590;2023-07-02T09:29:01;5.70;;;4.80;;
51525;SDS011;37611;51.794;21.590;2023-07-02T09:33:06;6.90;;;4.90;;
51525;SDS011;37611;51.794;21.590;2023-07-02T09:37:09;8.50;;;5.10;;
51525;SDS011;37611;51.794;21.590;2023-07-02T09:41:11;7.80;;;5.10;;
51525;SDS011;37611;51.794;21.590;2023-07-02T09:45:13;6.10;;;5.30;;
51525;SDS011;37611;51.794;21.590;2023-07-02T09:49:18;6.80;;;5.60;;
51525;SDS011;37611;51.794;21.590;2023-07-02T09:53:22;7.30;;;5.60;;
51525;SDS011;37611;51.794;21.590;2023-07-02T09:57:24;7.40;;;5.50;;
51525;SDS011;37611;51.794;21.590;2023-07-02T10:01:25;8.30;;;5.90;;
51525;SDS011;37611;51.794;21.590;2023-07-02T10:05:28;8.60;;;5.90;;
51525;SDS011;37611;51.794;21.590;2023-07-02T10:09:43;6.70;;;5.90;;
51525;SDS011;37611;51.794;21.590;2023-07-02T10:13:46;7.10;;;5.60;;
51525;SDS011;37611;51.794;21.590;2023-07-02T10:18:01;7.00;;;5.60;;
51525;SDS011;37611;51.794;21.590;2023-07-02T10:22:04;8.10;;;5.60;;
51525;SDS011;37611;51.794;21.590;2023-07-02T10:26:15;9.60;;;6.00;;
51525;SDS011;37611;51.794;21.590;2023-07-02T10:30:29;6.10;;;5.50;;
51525;SDS011;37611;51.794;21.590;2023-07-02T10:34:35;8.50;;;6.30;;
51525;SDS011;37611;51.794;21.590;2023-07-02T10:38:37;7.00;;;6.20;;
51525;SDS011;37611;51.794;21.590;2023-07-02T10:42:48;6.30;;;5.70;;
51525;SDS011;37611;51.794;21.590;2023-07-02T10:46:51;7.40;;;5.50;;
51525;SDS011;37611;51.794;21.590;2023-07-02T10:50:53;7.30;;;5.30;;
51525;SDS011;37611;51.794;21.590;2023-07-02T10:54:55;6.30;;;5.10;;
51525;SDS011;37611;51.794;21.590;2023-07-02T10:58:57;10.80;;;5.90;;
51525;SDS011;37611;51.794;21.590;2023-07-02T11:02:59;10.10;;;6.00;;
51525;SDS011;37611;51.794;21.590;2023-07-02T11:07:02;6.70;;;5.70;;
51525;SDS011;37611;51.794;21.590;2023-07-02T11:11:07;6.60;;;5.00;;
51525;SDS011;37611;51.794;21.590;2023-07-02T11:15:10;7.80;;;5.80;;
51525;SDS011;37611;51.794;21.590;2023-07-02T11:19:15;6.00;;;4.40;;
51525;SDS011;37611;51.794;21.590;2023-07-02T11:23:20;5.80;;;4.80;;
51525;SDS011;37611;51.794;21.590;2023-07-02T11:27:24;7.10;;;5.10;;
51525;SDS011;37611;51.794;21.590;2023-07-02T11:31:26;5.20;;;4.20;;
51525;SDS011;37611;51.794;21.590;2023-07-02T11:35:35;6.30;;;4.40;;
51525;SDS011;37611;51.794;21.590;2023-07-02T11:39:37;4.50;;;4.00;;
51525;SDS011;37611;51.794;21.590;2023-07-02T11:43:41;5.60;;;4.00;;
51525;SDS011;37611;51.794;21.590;2023-07-02T11:47:43;5.40;;;4.50;;
51525;SDS011;37611;51.794;21.590;2023-07-02T11:51:44;5.00;;;4.40;;
51525;SDS011;37611;51.794;21.590;2023-07-02T11:55:50;5.10;;;4.00;;
51525;SDS011;37611;51.794;21.590;2023-07-02T11:59:51;4.50;;;4.10;;
51525;SDS011;37611;51.794;21.590;2023-07-02T12:03:54;7.10;;;4.30;;
51525;SDS011;37611;51.794;21.590;2023-07-02T12:07:55;4.50;;;3.70;;
51525;SDS011;37611;51.794;21.590;2023-07-02T12:11:57;4.20;;;3.70;;
51525;SDS011;37611;51.794;21.590;2023-07-02T12:15:59;5.50;;;4.10;;
51525;SDS011;37611;51.794;21.590;2023-07-02T12:20:01;4.00;;;3.60;;
51525;SDS011;37611;51.794;21.590;2023-07-02T12:24:03;4.10;;;3.50;;
51525;SDS011;37611;51.794;21.590;2023-07-02T12:28:09;3.50;;;3.00;;
51525;SDS011;37611;51.794;21.590;2023-07-02T12:32:11;3.40;;;3.10;;
51525;SDS011;37611;51.794;21.590;2023-07-02T12:36:13;5.00;;;3.80;;
51525;SDS011;37611;51.794;21.590;2023-07-02T12:40:15;7.60;;;3.50;;
51525;SDS011;37611;51.794;21.590;2023-07-02T12:44:17;4.30;;;3.30;;
51525;SDS011;37611;51.794;21.590;2023-07-02T12:48:19;4.10;;;2.90;;
51525;SDS011;37611;51.794;21.590;2023-07-02T12:52:21;3.80;;;2.80;;
51525;SDS011;37611;51.794;21.590;2023-07-02T12:56:22;3.40;;;2.60;;
51525;SDS011;37611;51.794;21.590;2023-07-02T13:00:24;4.10;;;3.10;;
51525;SDS011;37611;51.794;21.590;2023-07-02T13:04:27;3.80;;;2.80;;
51525;SDS011;37611;51.794;21.590;2023-07-02T13:08:29;4.10;;;2.70;;
51525;SDS011;37611;51.794;21.590;2023-07-02T13:12:33;3.10;;;2.60;;
51525;SDS011;37611;51.794;21.590;2023-07-02T13:16:34;4.10;;;2.60;;
51525;SDS011;37611;51.794;21.590;2023-07-02T13:20:38;3.40;;;3.00;;
51525;SDS011;37611;51.794;21.590;2023-07-02T13:24:40;4.30;;;2.80;;
51525;SDS011;37611;51.794;21.590;2023-07-02T13:28:41;3.60;;;2.80;;
51525;SDS011;37611;51.794;21.590;2023-07-02T13:32:43;3.10;;;2.70;;
51525;SDS011;37611;51.794;21.590;2023-07-02T13:36:45;3.80;;;2.50;;
51525;SDS011;37611;51.794;21.590;2023-07-02T13:40:47;4.10;;;2.50;;
51525;SDS011;37611;51.794;21.590;2023-07-02T13:44:49;2.90;;;2.10;;
51525;SDS011;37611;51.794;21.590;2023-07-02T13:48:50;2.20;;;2.00;;
51525;SDS011;37611;51.794;21.590;2023-07-02T13:52:52;3.20;;;2.30;;
51525;SDS011;37611;51.794;21.590;2023-07-02T13:56:55;3.90;;;2.20;;
51525;SDS011;37611;51.794;21.590;2023-07-02T14:00:57;2.60;;;1.70;;
51525;SDS011;37611;51.794;21.590;2023-07-02T14:04:59;3.40;;;1.90;;
51525;SDS011;37611;51.794;21.590;2023-07-02T14:09:00;2.10;;;1.40;;
51525;SDS011;37611;51.794;21.590;2023-07-02T14:13:02;4.30;;;1.60;;
51525;SDS011;37611;51.794;21.590;2023-07-02T14:17:04;1.90;;;1.40;;
51525;SDS011;37611;51.794;21.590;2023-07-02T14:21:07;3.90;;;1.90;;
51525;SDS011;37611;51.794;21.590;2023-07-02T14:25:09;4.80;;;1.70;;
51525;SDS011;37611;51.794;21.590;2023-07-02T14:29:10;3.70;;;1.70;;
51525;SDS011;37611;51.794;21.590;2023-07-02T14:33:12;4.50;;;1.70;;
51525;SDS011;37611;51.794;21.590;2023-07-02T14:37:15;3.40;;;1.70;;
51525;SDS011;37611;51.794;21.590;2023-07-02T14:41:16;2.60;;;1.60;;
51525;SDS011;37611;51.794;21.590;2023-07-02T14:45:18;4.40;;;1.60;;
51525;SDS011;37611;51.794;21.590;2023-07-02T14:49:20;3.90;;;1.70;;
51525;SDS011;37611;51.794;21.590;2023-07-02T14:53:22;4.30;;;1.60;;
51525;SDS011;37611;51.794;21.590;2023-07-02T14:57:25;4.10;;;1.70;;
51525;SDS011;37611;51.794;21.590;2023-07-02T15:01:27;2.70;;;1.50;;
51525;SDS011;37611;51.794;21.590;2023-07-02T15:05:28;3.10;;;1.70;;
51525;SDS011;37611;51.794;21.590;2023-07-02T15:09:30;7.20;;;1.80;;
51525;SDS011;37611;51.794;21.590;2023-07-02T15:13:32;3.30;;;1.60;;
51525;SDS011;37611;51.794;21.590;2023-07-02T15:17:34;3.50;;;1.60;;
51525;SDS011;37611;51.794;21.590;2023-07-02T15:21:37;4.50;;;1.50;;
51525;SDS011;37611;51.794;21.590;2023-07-02T15:25:38;2.40;;;1.90;;
51525;SDS011;37611;51.794;21.590;2023-07-02T15:29:40;3.70;;;2.20;;
51525;SDS011;37611;51.794;21.590;2023-07-02T15:33:42;2.70;;;1.70;;
51525;SDS011;37611;51.794;21.590;2023-07-02T15:37:45;3.50;;;2.20;;
51525;SDS011;37611;51.794;21.590;2023-07-02T15:41:47;5.70;;;1.90;;
51525;SDS011;37611;51.794;21.590;2023-07-02T15:45:51;3.40;;;1.70;;
51525;SDS011;37611;51.794;21.590;2023-07-02T15:49:53;2.70;;;1.70;;
51525;SDS011;37611;51.794;21.590;2023-07-02T15:53:55;3.30;;;1.70;;
51525;SDS011;37611;51.794;21.590;2023-07-02T15:57:57;4.90;;;1.90;;
51525;SDS011;37611;51.794;21.590;2023-07-02T16:01:59;2.10;;;1.60;;
51525;SDS011;37611;51.794;21.590;2023-07-02T16:06:01;2.00;;;1.70;;
51525;SDS011;37611;51.794;21.590;2023-07-02T16:10:05;2.60;;;1.60;;
51525;SDS011;37611;51.794;21.590;2023-07-02T16:14:08;2.40;;;1.70;;
51525;SDS011;37611;51.794;21.590;2023-07-02T16:18:12;4.50;;;1.90;;
51525;SDS011;37611;51.794;21.590;2023-07-02T16:22:14;4.30;;;2.00;;
51525;SDS011;37611;51.794;21.590;2023-07-02T16:26:16;2.60;;;1.50;;
51525;SDS011;37611;51.794;21.590;2023-07-02T16:30:18;3.30;;;1.80;;
51525;SDS011;37611;51.794;21.590;2023-07-02T16:34:20;2.80;;;1.70;;
51525;SDS011;37611;51.794;21.590;2023-07-02T16:38:21;3.50;;;2.00;;
51525;SDS011;37611;51.794;21.590;2023-07-02T16:42:23;3.20;;;1.80;;
51525;SDS011;37611;51.794;21.590;2023-07-02T16:46:25;2.90;;;1.40;;
51525;SDS011;37611;51.794;21.590;2023-07-02T16:50:27;3.00;;;1.80;;
51525;SDS011;37611;51.794;21.590;2023-07-02T16:54:28;2.80;;;1.70;;
51525;SDS011;37611;51.794;21.590;2023-07-02T16:58:31;3.20;;;1.80;;
51525;SDS011;37611;51.794;21.590;2023-07-02T17:02:34;3.00;;;1.70;;
51525;SDS011;37611;51.794;21.590;2023-07-02T17:06:37;3.20;;;1.80;;
51525;SDS011;37611;51.794;21.590;2023-07-02T17:10:40;4.10;;;1.70;;
51525;SDS011;37611;51.794;21.590;2023-07-02T17:14:45;4.10;;;2.00;;
51525;SDS011;37611;51.794;21.590;2023-07-02T17:18:51;3.40;;;1.70;;
51525;SDS011;37611;51.794;21.590;2023-07-02T17:22:53;3.50;;;2.10;;
51525;SDS011;37611;51.794;21.590;2023-07-02T17:26:56;2.50;;;2.10;;
51525;SDS011;37611;51.794;21.590;2023-07-02T17:30:59;2.80;;;1.80;;
51525;SDS011;37611;51.794;21.590;2023-07-02T17:35:01;2.10;;;1.60;;
51525;SDS011;37611;51.794;21.590;2023-07-02T17:39:03;3.00;;;1.70;;
51525;SDS011;37611;51.794;21.590;2023-07-02T17:43:07;3.30;;;2.00;;
51525;SDS011;37611;51.794;21.590;2023-07-02T17:47:10;4.20;;;1.80;;
51525;SDS011;37611;51.794;21.590;2023-07-02T17:51:14;3.70;;;2.10;;
51525;SDS011;37611;51.794;21.590;2023-07-02T17:55:16;4.70;;;2.50;;
51525;SDS011;37611;51.794;21.590;2023-07-02T17:59:18;4.20;;;2.70;;
51525;SDS011;37611;51.794;21.590;2023-07-02T18:03:21;4.90;;;3.30;;
51525;SDS011;37611;51.794;21.590;2023-07-02T18:07:23;4.70;;;2.80;;
51525;SDS011;37611;51.794;21.590;2023-07-02T18:11:25;5.10;;;2.70;;
51525;SDS011;37611;51.794;21.590;2023-07-02T18:15:26;4.30;;;3.10;;
51525;SDS011;37611;51.794;21.590;2023-07-02T18:19:28;4.70;;;3.30;;
51525;SDS011;37611;51.794;21.590;2023-07-02T18:23:30;5.70;;;3.00;;
51525;SDS011;37611;51.794;21.590;2023-07-02T18:27:32;3.90;;;2.90;;
51525;SDS011;37611;51.794;21.590;2023-07-02T18:31:34;4.80;;;2.70;;
51525;SDS011;37611;51.794;21.590;2023-07-02T18:35:36;4.50;;;3.00;;
51525;SDS011;37611;51.794;21.590;2023-07-02T18:39:41;5.40;;;3.30;;
51525;SDS011;37611;51.794;21.590;2023-07-02T18:43:43;6.00;;;3.20;;
51525;SDS011;37611;51.794;21.590;2023-07-02T18:47:45;5.10;;;3.60;;
51525;SDS011;37611;51.794;21.590;2023-07-02T18:51:46;3.40;;;3.10;;
51525;SDS011;37611;51.794;21.590;2023-07-02T18:55:58;5.40;;;3.50;;
51525;SDS011;37611;51.794;21.590;2023-07-02T19:00:05;4.90;;;3.40;;
51525;SDS011;37611;51.794;21.590;2023-07-02T19:04:10;8.00;;;3.70;;
51525;SDS011;37611;51.794;21.590;2023-07-02T19:08:11;6.00;;;4.20;;
51525;SDS011;37611;51.794;21.590;2023-07-02T19:12:13;6.00;;;4.50;;
51525;SDS011;37611;51.794;21.590;2023-07-02T19:16:16;6.10;;;4.60;;
51525;SDS011;37611;51.794;21.590;2023-07-02T19:20:18;7.40;;;5.00;;
51525;SDS011;37611;51.794;21.590;2023-07-02T19:24:21;6.30;;;5.00;;
51525;SDS011;37611;51.794;21.590;2023-07-02T19:28:23;7.30;;;4.70;;
51525;SDS011;37611;51.794;21.590;2023-07-02T19:32:25;5.90;;;5.00;;
51525;SDS011;37611;51.794;21.590;2023-07-02T19:36:27;7.00;;;5.40;;
51525;SDS011;37611;51.794;21.590;2023-07-02T19:40:29;6.10;;;5.50;;
51525;SDS011;37611;51.794;21.590;2023-07-02T19:44:31;5.90;;;5.30;;
51525;SDS011;37611;51.794;21.590;2023-07-02T19:48:33;6.60;;;4.80;;
51525;SDS011;37611;51.794;21.590;2023-07-02T19:52:35;6.60;;;3.90;;
51525;SDS011;37611;51.794;21.590;2023-07-02T19:56:37;5.30;;;4.30;;
51525;SDS011;37611;51.794;21.590;2023-07-02T20:00:40;5.10;;;3.40;;
51525;SDS011;37611;51.794;21.590;2023-07-02T20:04:43;3.70;;;3.10;;
51525;SDS011;37611;51.794;21.590;2023-07-02T20:08:49;4.30;;;3.60;;
51525;SDS011;37611;51.794;21.590;2023-07-02T20:12:51;4.50;;;3.80;;
51525;SDS011;37611;51.794;21.590;2023-07-02T20:16:55;4.40;;;3.20;;
51525;SDS011;37611;51.794;21.590;2023-07-02T20:21:02;4.00;;;3.50;;
51525;SDS011;37611;51.794;21.590;2023-07-02T20:25:06;5.70;;;3.20;;
51525;SDS011;37611;51.794;21.590;2023-07-02T20:29:08;4.00;;;3.60;;
51525;SDS011;37611;51.794;21.590;2023-07-02T20:33:10;4.20;;;3.40;;
51525;SDS011;37611;51.794;21.590;2023-07-02T20:37:12;6.00;;;3.90;;
51525;SDS011;37611;51.794;21.590;2023-07-02T20:41:16;8.60;;;4.30;;
51525;SDS011;37611;51.794;21.590;2023-07-02T20:45:18;7.00;;;4.50;;
51525;SDS011;37611;51.794;21.590;2023-07-02T20:49:22;7.00;;;4.20;;
51525;SDS011;37611;51.794;21.590;2023-07-02T20:53:24;4.50;;;4.10;;
51525;SDS011;37611;51.794;21.590;2023-07-02T20:57:25;5.20;;;4.10;;
51525;SDS011;37611;51.794;21.590;2023-07-02T21:01:27;6.30;;;4.40;;
51525;SDS011;37611;51.794;21.590;2023-07-02T21:05:29;8.30;;;4.00;;
51525;SDS011;37611;51.794;21.590;2023-07-02T21:09:31;8.00;;;4.50;;
51525;SDS011;37611;51.794;21.590;2023-07-02T21:13:33;5.00;;;4.20;;
51525;SDS011;37611;51.794;21.590;2023-07-02T21:17:35;6.20;;;4.80;;
51525;SDS011;37611;51.794;21.590;2023-07-02T21:21:36;5.70;;;4.60;;
51525;SDS011;37611;51.794;21.590;2023-07-02T21:25:40;6.80;;;4.20;;
51525;SDS011;37611;51.794;21.590;2023-07-02T21:29:42;7.30;;;4.40;;
51525;SDS011;37611;51.794;21.590;2023-07-02T21:33:43;7.40;;;4.50;;
51525;SDS011;37611;51.794;21.590;2023-07-02T21:37:45;5.00;;;3.80;;
51525;SDS011;37611;51.794;21.590;2023-07-02T21:41:47;4.40;;;3.70;;
51525;SDS011;37611;51.794;21.590;2023-07-02T21:45:55;4.70;;;3.60;;
51525;SDS011;37611;51.794;21.590;2023-07-02T21:49:58;7.40;;;3.70;;
51525;SDS011;37611;51.794;21.590;2023-07-02T21:53:59;6.50;;;4.00;;
51525;SDS011;37611;51.794;21.590;2023-07-02T21:58:01;5.30;;;3.80;;
51525;SDS011;37611;51.794;21.590;2023-07-02T22:02:03;4.80;;;3.60;;
51525;SDS011;37611;51.794;21.590;2023-07-02T22:06:05;4.60;;;4.10;;
51525;SDS011;37611;51.794;21.590;2023-07-02T22:10:09;5.00;;;4.10;;
51525;SDS011;37611;51.794;21.590;2023-07-02T22:14:13;5.00;;;4.00;;
51525;SDS011;37611;51.794;21.590;2023-07-02T22:18:14;6.10;;;4.10;;
51525;SDS011;37611;51.794;21.590;2023-07-02T22:22:17;4.70;;;4.20;;
51525;SDS011;37611;51.794;21.590;2023-07-02T22:26:20;6.80;;;4.10;;
51525;SDS011;37611;51.794;21.590;2023-07-02T22:30:24;5.90;;;4.20;;
51525;SDS011;37611;51.794;21.590;2023-07-02T22:34:26;4.90;;;4.40;;
51525;SDS011;37611;51.794;21.590;2023-07-02T22:38:28;5.40;;;4.60;;
51525;SDS011;37611;51.794;21.590;2023-07-02T22:42:30;5.40;;;4.10;;
51525;SDS011;37611;51.794;21.590;2023-07-02T22:46:31;4.80;;;3.70;;
51525;SDS011;37611;51.794;21.590;2023-07-02T22:50:33;6.90;;;4.40;;
51525;SDS011;37611;51.794;21.590;2023-07-02T22:54:35;6.70;;;4.00;;
51525;SDS011;37611;51.794;21.590;2023-07-02T22:58:37;6.10;;;4.10;;
51525;SDS011;37611;51.794;21.590;2023-07-02T23:02:40;6.20;;;4.70;;
51525;SDS011;37611;51.794;21.590;2023-07-02T23:06:43;6.40;;;4.40;;
51525;SDS011;37611;51.794;21.590;2023-07-02T23:10:45;5.60;;;4.30;;
51525;SDS011;37611;51.794;21.590;2023-07-02T23:14:47;8.60;;;4.30;;
51525;SDS011;37611;51.794;21.590;2023-07-02T23:18:49;5.90;;;5.00;;
51525;SDS011;37611;51.794;21.590;2023-07-02T23:22:51;6.30;;;4.70;;
51525;SDS011;37611;51.794;21.590;2023-07-02T23:26:53;9.90;;;4.80;;
51525;SDS011;37611;51.794;21.590;2023-07-02T23:30:55;5.10;;;4.40;;
51525;SDS011;37611;51.794;21.590;2023-07-02T23:34:56;5.70;;;4.30;;
51525;SDS011;37611;51.794;21.590;2023-07-02T23:38:58;8.50;;;4.90;;
51525;SDS011;37611;51.794;21.590;2023-07-02T23:43:00;5.30;;;4.10;;